RYR736 LEMH-LEMD
Flight info
| Callsign | RYR736 |
|---|---|
| Flight time | N/A |
| Altitude | 31000 |
| Route | EPAMA N733 PRADO |
| Aircraft | B738/M-SDE2E3FGHIRWXY/LB1 |
Departure
| Time | N/A |
|---|---|
| Airport | Menorca Airport (LEMH) |
Arrival
| Time | 2026-05-03 20:59 |
|---|---|
| Airport | Adolfo Suárez Madrid–Barajas Airport (LEMD) |
| Time | Latitude | Longitude | Altitude | Speed | Heading |
|---|---|---|---|---|---|
| 2026-05-03 20:15 | 39.59847 | 1.27706 | 30993 ft | 379 kts | 263° |
| 2026-05-03 20:15 | 39.59388 | 1.20901 | 30995 ft | 379 kts | 263° |
| 2026-05-03 20:16 | 39.58973 | 1.14101 | 31016 ft | 379 kts | 264° |
| 2026-05-03 20:16 | 39.58577 | 1.07293 | 31000 ft | 379 kts | 264° |
| 2026-05-03 20:17 | 39.58188 | 1.00539 | 30996 ft | 378 kts | 264° |
| 2026-05-03 20:17 | 39.57793 | 0.93740 | 30997 ft | 378 kts | 264° |
| 2026-05-03 20:18 | 39.57394 | 0.86956 | 30989 ft | 377 kts | 264° |
| 2026-05-03 20:18 | 39.56993 | 0.80193 | 30991 ft | 376 kts | 264° |
| 2026-05-03 20:19 | 39.56591 | 0.73493 | 31014 ft | 375 kts | 264° |
| 2026-05-03 20:19 | 39.56185 | 0.66771 | 30997 ft | 374 kts | 264° |
| 2026-05-03 20:20 | 39.55775 | 0.60062 | 30996 ft | 373 kts | 264° |
| 2026-05-03 20:20 | 39.55365 | 0.53373 | 30994 ft | 372 kts | 264° |
| 2026-05-03 20:21 | 39.54955 | 0.46735 | 30995 ft | 372 kts | 264° |
| 2026-05-03 20:21 | 39.54539 | 0.40048 | 30996 ft | 372 kts | 264° |
| 2026-05-03 20:22 | 39.54119 | 0.33357 | 31000 ft | 373 kts | 263° |
| 2026-05-03 20:22 | 39.53691 | 0.26653 | 30994 ft | 374 kts | 263° |
| 2026-05-03 20:23 | 39.53254 | 0.19944 | 30994 ft | 374 kts | 263° |
| 2026-05-03 20:23 | 39.52816 | 0.13275 | 30997 ft | 374 kts | 263° |
| 2026-05-03 20:24 | 39.52372 | 0.06574 | 30997 ft | 374 kts | 263° |
| 2026-05-03 20:24 | 39.51925 | -0.00135 | 31005 ft | 374 kts | 263° |
| 2026-05-03 20:25 | 39.51474 | -0.06839 | 31002 ft | 374 kts | 263° |
| 2026-05-03 20:25 | 39.51023 | -0.13487 | 30994 ft | 373 kts | 263° |
| 2026-05-03 20:26 | 39.50566 | -0.20175 | 30996 ft | 372 kts | 263° |
| 2026-05-03 20:26 | 39.50106 | -0.26834 | 30995 ft | 372 kts | 263° |
| 2026-05-03 20:27 | 39.49642 | -0.33519 | 30994 ft | 372 kts | 263° |
| 2026-05-03 20:27 | 39.49178 | -0.40136 | 30994 ft | 372 kts | 263° |
| 2026-05-03 20:28 | 39.49156 | -0.46820 | 31000 ft | 376 kts | 277° |
| 2026-05-03 20:28 | 39.50745 | -0.53316 | 30985 ft | 385 kts | 292° |
| 2026-05-03 20:29 | 39.53411 | -0.59361 | 30997 ft | 387 kts | 295° |
| 2026-05-03 20:29 | 39.56124 | -0.65392 | 30993 ft | 387 kts | 294° |
| 2026-05-03 20:30 | 39.58809 | -0.71445 | 31017 ft | 388 kts | 294° |
| 2026-05-03 20:30 | 39.61464 | -0.77480 | 31026 ft | 388 kts | 294° |
| 2026-05-03 20:31 | 39.64139 | -0.83583 | 31017 ft | 390 kts | 294° |
| 2026-05-03 20:31 | 39.66820 | -0.89711 | 31022 ft | 391 kts | 294° |
| 2026-05-03 20:32 | 39.69508 | -0.95863 | 30977 ft | 392 kts | 294° |
| 2026-05-03 20:32 | 39.72197 | -1.02032 | 30972 ft | 393 kts | 294° |
| 2026-05-03 20:33 | 39.74869 | -1.08174 | 30962 ft | 393 kts | 294° |
| 2026-05-03 20:33 | 39.77553 | -1.14368 | 30966 ft | 393 kts | 294° |
| 2026-05-03 20:34 | 39.80225 | -1.20556 | 30987 ft | 392 kts | 294° |
| 2026-05-03 20:34 | 39.82923 | -1.26753 | 30946 ft | 393 kts | 294° |
| 2026-05-03 20:34 | 39.84274 | -1.29836 | 30643 ft | 390 kts | 294° |
| 2026-05-03 20:35 | 39.85587 | -1.32833 | 30291 ft | 385 kts | 294° |
| 2026-05-03 20:35 | 39.86903 | -1.35847 | 29899 ft | 381 kts | 294° |
| 2026-05-03 20:35 | 39.88207 | -1.38840 | 29460 ft | 378 kts | 294° |
| 2026-05-03 20:35 | 39.89494 | -1.41795 | 29051 ft | 374 kts | 294° |
| 2026-05-03 20:36 | 39.90768 | -1.44731 | 28642 ft | 370 kts | 294° |
| 2026-05-03 20:36 | 39.92026 | -1.47645 | 28196 ft | 368 kts | 294° |
| 2026-05-03 20:36 | 39.93064 | -1.50632 | 27907 ft | 356 kts | 282° |
| 2026-05-03 20:36 | 39.93697 | -1.53711 | 27669 ft | 351 kts | 279° |
| 2026-05-03 20:37 | 39.94308 | -1.56828 | 27423 ft | 358 kts | 279° |
| 2026-05-03 20:37 | 39.94930 | -1.59994 | 27179 ft | 363 kts | 279° |
| 2026-05-03 20:37 | 39.95553 | -1.63141 | 26926 ft | 362 kts | 280° |
| 2026-05-03 20:37 | 39.96184 | -1.66305 | 26655 ft | 359 kts | 280° |
| 2026-05-03 20:38 | 39.96811 | -1.69436 | 26298 ft | 355 kts | 280° |
| 2026-05-03 20:38 | 39.97435 | -1.72543 | 25906 ft | 353 kts | 280° |
| 2026-05-03 20:38 | 39.98053 | -1.75629 | 25512 ft | 351 kts | 280° |
| 2026-05-03 20:38 | 39.98667 | -1.78697 | 25124 ft | 349 kts | 279° |
| 2026-05-03 20:39 | 39.99278 | -1.81750 | 24730 ft | 347 kts | 279° |
| 2026-05-03 20:39 | 39.99884 | -1.84785 | 24339 ft | 345 kts | 279° |
| 2026-05-03 20:39 | 40.00486 | -1.87804 | 23957 ft | 344 kts | 279° |
| 2026-05-03 20:39 | 40.01086 | -1.90820 | 23550 ft | 343 kts | 279° |
| 2026-05-03 20:40 | 40.01675 | -1.93784 | 23129 ft | 342 kts | 279° |
| 2026-05-03 20:40 | 40.02270 | -1.96779 | 22687 ft | 340 kts | 279° |
| 2026-05-03 20:40 | 40.02860 | -1.99756 | 22297 ft | 337 kts | 279° |
| 2026-05-03 20:40 | 40.03444 | -2.02704 | 21929 ft | 334 kts | 279° |
| 2026-05-03 20:41 | 40.04024 | -2.05636 | 21544 ft | 332 kts | 279° |
| 2026-05-03 20:41 | 40.04599 | -2.08549 | 21138 ft | 331 kts | 279° |
| 2026-05-03 20:41 | 40.05170 | -2.11444 | 20768 ft | 328 kts | 279° |
| 2026-05-03 20:41 | 40.05737 | -2.14323 | 20397 ft | 326 kts | 279° |
| 2026-05-03 20:42 | 40.06299 | -2.17180 | 20032 ft | 324 kts | 279° |
| 2026-05-03 20:42 | 40.06857 | -2.20022 | 19685 ft | 322 kts | 279° |
| 2026-05-03 20:42 | 40.07403 | -2.22807 | 19326 ft | 320 kts | 279° |
| 2026-05-03 20:42 | 40.07952 | -2.25615 | 18979 ft | 318 kts | 279° |
| 2026-05-03 20:43 | 40.08497 | -2.28405 | 18622 ft | 316 kts | 279° |
| 2026-05-03 20:43 | 40.09039 | -2.31184 | 18265 ft | 315 kts | 278° |
| 2026-05-03 20:43 | 40.09578 | -2.33945 | 17885 ft | 313 kts | 278° |
| 2026-05-03 20:43 | 40.10112 | -2.36693 | 17486 ft | 312 kts | 278° |
| 2026-05-03 20:44 | 40.10645 | -2.39436 | 17061 ft | 311 kts | 279° |
| 2026-05-03 20:44 | 40.11175 | -2.42168 | 16676 ft | 310 kts | 279° |
| 2026-05-03 20:44 | 40.11703 | -2.44890 | 16284 ft | 308 kts | 279° |
| 2026-05-03 20:44 | 40.12227 | -2.47601 | 15883 ft | 307 kts | 279° |
| 2026-05-03 20:45 | 40.12743 | -2.50271 | 15509 ft | 307 kts | 279° |
| 2026-05-03 20:45 | 40.13264 | -2.52968 | 15116 ft | 305 kts | 280° |
| 2026-05-03 20:45 | 40.13781 | -2.55650 | 14733 ft | 304 kts | 280° |
| 2026-05-03 20:45 | 40.14296 | -2.58328 | 14333 ft | 304 kts | 280° |
| 2026-05-03 20:46 | 40.14811 | -2.61006 | 13904 ft | 305 kts | 281° |
| 2026-05-03 20:46 | 40.15328 | -2.63698 | 13520 ft | 304 kts | 281° |
| 2026-05-03 20:46 | 40.15843 | -2.66376 | 13158 ft | 303 kts | 281° |
| 2026-05-03 20:46 | 40.16351 | -2.69027 | 12825 ft | 300 kts | 281° |
| 2026-05-03 20:47 | 40.16855 | -2.71664 | 12480 ft | 298 kts | 281° |
| 2026-05-03 20:47 | 40.17355 | -2.74276 | 12176 ft | 295 kts | 281° |
| 2026-05-03 20:47 | 40.17843 | -2.76833 | 11832 ft | 293 kts | 280° |
| 2026-05-03 20:47 | 40.18334 | -2.79413 | 11503 ft | 291 kts | 280° |
| 2026-05-03 20:48 | 40.18822 | -2.81976 | 11178 ft | 290 kts | 280° |
| 2026-05-03 20:48 | 40.19306 | -2.84526 | 10857 ft | 288 kts | 280° |
| 2026-05-03 20:48 | 40.19788 | -2.87062 | 10540 ft | 287 kts | 280° |
| 2026-05-03 20:48 | 40.20265 | -2.89581 | 10322 ft | 282 kts | 280° |
| 2026-05-03 20:49 | 40.20731 | -2.92033 | 10185 ft | 274 kts | 279° |
| 2026-05-03 20:49 | 40.21183 | -2.94418 | 10068 ft | 266 kts | 279° |
| 2026-05-03 20:49 | 40.21624 | -2.96749 | 9838 ft | 263 kts | 279° |
| 2026-05-03 20:49 | 40.22061 | -2.99071 | 9558 ft | 262 kts | 279° |
| 2026-05-03 20:50 | 40.22494 | -3.01374 | 9293 ft | 259 kts | 280° |
| 2026-05-03 20:50 | 40.22915 | -3.03616 | 9063 ft | 256 kts | 280° |
| 2026-05-03 20:50 | 40.23339 | -3.05873 | 8783 ft | 254 kts | 280° |
| 2026-05-03 20:50 | 40.23758 | -3.08106 | 8524 ft | 252 kts | 280° |
| 2026-05-03 20:51 | 40.24175 | -3.10331 | 8258 ft | 251 kts | 279° |
| 2026-05-03 20:51 | 40.24588 | -3.12540 | 7992 ft | 249 kts | 279° |
| 2026-05-03 20:51 | 40.24999 | -3.14735 | 7721 ft | 248 kts | 279° |
| 2026-05-03 20:51 | 40.25407 | -3.16922 | 7455 ft | 247 kts | 280° |
| 2026-05-03 20:52 | 40.25812 | -3.19091 | 7265 ft | 242 kts | 280° |
| 2026-05-03 20:52 | 40.26205 | -3.21191 | 7150 ft | 234 kts | 280° |
| 2026-05-03 20:52 | 40.26584 | -3.23223 | 7047 ft | 226 kts | 279° |
| 2026-05-03 20:52 | 40.26947 | -3.25166 | 6948 ft | 219 kts | 279° |
| 2026-05-03 20:53 | 40.27300 | -3.27068 | 6846 ft | 211 kts | 279° |
| 2026-05-03 20:53 | 40.27643 | -3.28915 | 6772 ft | 207 kts | 279° |
| 2026-05-03 20:53 | 40.27982 | -3.30746 | 6650 ft | 208 kts | 278° |
| 2026-05-03 20:53 | 40.28385 | -3.32577 | 6421 ft | 212 kts | 292° |
| 2026-05-03 20:54 | 40.29290 | -3.34119 | 6222 ft | 214 kts | 306° |
| 2026-05-03 20:54 | 40.31236 | -3.37057 | 5907 ft | 220 kts | 309° |
| 2026-05-03 20:54 | 40.32413 | -3.38391 | 5631 ft | 225 kts | 316° |
| 2026-05-03 20:55 | 40.33646 | -3.39636 | 5331 ft | 223 kts | 317° |
| 2026-05-03 20:55 | 40.34849 | -3.40849 | 5042 ft | 219 kts | 316° |
| 2026-05-03 20:55 | 40.36037 | -3.42057 | 4751 ft | 213 kts | 316° |
| 2026-05-03 20:55 | 40.37179 | -3.43225 | 4451 ft | 203 kts | 317° |
| 2026-05-03 20:56 | 40.38270 | -3.44339 | 4189 ft | 194 kts | 317° |
| 2026-05-03 20:56 | 40.39312 | -3.45404 | 3935 ft | 187 kts | 316° |
| 2026-05-03 20:56 | 40.40326 | -3.46441 | 3696 ft | 184 kts | 316° |
| 2026-05-03 20:56 | 40.41338 | -3.47476 | 3466 ft | 186 kts | 317° |
| 2026-05-03 20:57 | 40.42345 | -3.48503 | 3182 ft | 177 kts | 317° |
| 2026-05-03 20:57 | 40.43263 | -3.49442 | 2978 ft | 159 kts | 320° |
| 2026-05-03 20:57 | 40.44124 | -3.50319 | 2760 ft | 155 kts | 320° |
| 2026-05-03 20:57 | 40.44964 | -3.51183 | 2522 ft | 155 kts | 320° |
| 2026-05-03 20:58 | 40.45811 | -3.52048 | 2324 ft | 153 kts | 320° |
| 2026-05-03 20:58 | 40.46657 | -3.52906 | 2102 ft | 155 kts | 320° |
| 2026-05-03 20:58 | 40.47494 | -3.53766 | 1937 ft | 149 kts | 320° |
| 2026-05-03 20:58 | 40.48218 | -3.54503 | 1933 ft | 103 kts | 322° |
| 2026-05-03 20:59 | 40.48617 | -3.54908 | 1945 ft | 37 kts | 323° |
| 2026-05-03 20:59 | 40.48764 | -3.55110 | 1950 ft | 26 kts | 300° |
| 2026-05-03 20:59 | 40.48824 | -3.55285 | 1955 ft | 15 kts | 292° |
| 2026-05-03 20:59 | 40.48862 | -3.55405 | 1950 ft | 14 kts | 292° |
| 2026-05-03 21:00 | 40.48920 | -3.55493 | 1953 ft | 8 kts | 321° |
| 2026-05-03 21:00 | 40.48950 | -3.55524 | 1952 ft | 8 kts | 322° |
| 2026-05-03 21:00 | 40.49009 | -3.55584 | 1952 ft | 8 kts | 324° |
| 2026-05-03 21:00 | 40.49074 | -3.55648 | 1954 ft | 17 kts | 322° |
| 2026-05-03 21:01 | 40.49173 | -3.55750 | 1959 ft | 18 kts | 321° |
| 2026-05-03 21:01 | 40.49201 | -3.55778 | 1959 ft | 1 kts | 323° |
| 2026-05-03 21:01 | 40.49205 | -3.55782 | 1959 ft | 1 kts | 323° |
| 2026-05-03 21:01 | 40.49209 | -3.55786 | 1959 ft | 1 kts | 323° |
| 2026-05-03 21:02 | 40.49212 | -3.55789 | 1959 ft | 1 kts | 323° |
| 2026-05-03 21:02 | 40.49216 | -3.55793 | 1959 ft | 1 kts | 323° |
| 2026-05-03 21:02 | 40.49219 | -3.55796 | 1959 ft | 1 kts | 323° |
| 2026-05-03 21:02 | 40.49235 | -3.55812 | 1961 ft | 9 kts | 323° |
| 2026-05-03 21:03 | 40.49295 | -3.55900 | 1959 ft | 15 kts | 284° |
| 2026-05-03 21:03 | 40.49299 | -3.55986 | 1958 ft | 0 kts | 271° |
| 2026-05-03 21:04 | 40.49299 | -3.56040 | 1958 ft | 15 kts | 270° |
| 2026-05-03 21:04 | 40.49246 | -3.56140 | 1958 ft | 15 kts | 185° |
| 2026-05-03 21:04 | 40.49144 | -3.56140 | 1958 ft | 14 kts | 179° |
| 2026-05-03 21:04 | 40.49048 | -3.56139 | 1958 ft | 14 kts | 180° |
| 2026-05-03 21:05 | 40.48955 | -3.56139 | 1958 ft | 13 kts | 180° |
| 2026-05-03 21:05 | 40.48866 | -3.56139 | 1958 ft | 13 kts | 180° |
| 2026-05-03 21:05 | 40.48783 | -3.56158 | 1960 ft | 12 kts | 223° |
| 2026-05-03 21:05 | 40.48768 | -3.56264 | 1961 ft | 14 kts | 270° |
| 2026-05-03 21:06 | 40.48769 | -3.56416 | 1965 ft | 17 kts | 270° |
| 2026-05-03 21:06 | 40.48768 | -3.56569 | 1973 ft | 16 kts | 268° |
| 2026-05-03 21:06 | 40.48767 | -3.56716 | 1974 ft | 16 kts | 270° |
| 2026-05-03 21:06 | 40.48766 | -3.56914 | 1981 ft | 25 kts | 269° |
| 2026-05-03 21:07 | 40.48765 | -3.57136 | 1984 ft | 23 kts | 269° |
| 2026-05-03 21:07 | 40.48764 | -3.57344 | 1985 ft | 22 kts | 270° |
| 2026-05-03 21:07 | 40.48763 | -3.57543 | 1989 ft | 22 kts | 269° |
| 2026-05-03 21:07 | 40.48763 | -3.57738 | 1992 ft | 21 kts | 270° |
| 2026-05-03 21:08 | 40.48737 | -3.57916 | 1997 ft | 20 kts | 212° |
| 2026-05-03 21:08 | 40.48601 | -3.57917 | 1998 ft | 20 kts | 163° |
| 2026-05-03 21:08 | 40.48473 | -3.57831 | 1991 ft | 23 kts | 149° |
| 2026-05-03 21:08 | 40.48321 | -3.57699 | 1994 ft | 27 kts | 142° |
| 2026-05-03 21:09 | 40.48178 | -3.57553 | 1998 ft | 25 kts | 142° |
| 2026-05-03 21:09 | 40.48044 | -3.57418 | 2001 ft | 23 kts | 142° |
| 2026-05-03 21:09 | 40.47919 | -3.57291 | 2002 ft | 22 kts | 142° |
| 2026-05-03 21:09 | 40.47796 | -3.57166 | 2000 ft | 22 kts | 142° |
| 2026-05-03 21:10 | 40.47678 | -3.57046 | 1996 ft | 21 kts | 142° |
| 2026-05-03 21:10 | 40.47562 | -3.56928 | 1992 ft | 21 kts | 142° |
| 2026-05-03 21:10 | 40.47447 | -3.56811 | 1989 ft | 20 kts | 142° |
| 2026-05-03 21:10 | 40.47336 | -3.56699 | 1987 ft | 20 kts | 142° |
| 2026-05-03 21:11 | 40.47226 | -3.56587 | 1983 ft | 21 kts | 142° |
| 2026-05-03 21:11 | 40.47109 | -3.56485 | 1979 ft | 20 kts | 158° |
| 2026-05-03 21:11 | 40.46974 | -3.56451 | 1979 ft | 20 kts | 182° |
| 2026-05-03 21:11 | 40.46841 | -3.56461 | 1973 ft | 19 kts | 183° |
| 2026-05-03 21:12 | 40.46712 | -3.56470 | 1973 ft | 18 kts | 183° |
| 2026-05-03 21:12 | 40.46587 | -3.56480 | 1973 ft | 18 kts | 184° |
| 2026-05-03 21:12 | 40.46467 | -3.56489 | 1971 ft | 17 kts | 183° |
| 2026-05-03 21:12 | 40.46353 | -3.56498 | 1972 ft | 16 kts | 184° |
| 2026-05-03 21:13 | 40.46296 | -3.56601 | 1972 ft | 16 kts | 271° |
| 2026-05-03 21:13 | 40.46306 | -3.56725 | 1973 ft | 12 kts | 303° |
| 2026-05-03 21:13 | 40.46383 | -3.56735 | 1975 ft | 12 kts | 16° |
| 2026-05-03 21:13 | 40.46413 | -3.56775 | 1972 ft | 7 kts | 285° |
| 2026-05-03 21:14 | 40.46423 | -3.56822 | 1974 ft | 4 kts | 286° |
| 2026-05-03 21:14 | 40.46426 | -3.56835 | 1973 ft | 0 kts | 286° |